Time;durP1;ratioP1;P1;durP2;ratioP2;P2;SDS_P1;SDS_P2;PMS_P1;PMS_P2;Temp;Humidity;BMP_temperature;BMP_pressure;BME280_temperature;BME280_humidity;BME280_pressure;Samples;Min_cycle;Max_cycle;Signal;HPM_P1;HPM_P2
2023/10/24 00:02:16;;;;;;;0.40;0.40;;;;;;;8.72;100.00;100370.53;5006894;28;20030;-72
2023/10/24 00:04:42;;;;;;;0.45;0.45;;;;;;;8.73;100.00;100360.19;5006833;28;20091;-73
2023/10/24 00:07:07;;;;;;;0.40;0.40;;;;;;;8.61;100.00;100339.50;5008041;28;20046;-72
2023/10/24 00:09:32;;;;;;;0.40;0.40;;;;;;;8.72;100.00;100367.97;5007850;28;20026;-73
2023/10/24 00:11:58;;;;;;;0.40;0.40;;;;;;;8.79;100.00;100367.06;5007863;28;20555;-73
2023/10/24 00:14:23;;;;;;;0.35;0.35;;;;;;;8.74;100.00;100367.06;5006449;28;20102;-72
2023/10/24 00:16:48;;;;;;;0.40;0.40;;;;;;;8.71;100.00;100359.31;5007951;28;20033;-72
2023/10/24 00:19:14;;;;;;;0.40;0.40;;;;;;;8.75;100.00;100357.59;5007845;28;20443;-71
2023/10/24 00:21:39;;;;;;;0.40;0.40;;;;;;;8.77;100.00;100361.06;5006208;28;20054;-72
2023/10/24 00:24:05;;;;;;;0.40;0.40;;;;;;;8.77;100.00;100355.88;5007625;28;20113;-73
2023/10/24 00:26:30;;;;;;;0.40;0.40;;;;;;;8.83;100.00;100363.63;5007641;28;20023;-73
2023/10/24 00:28:55;;;;;;;0.40;0.40;;;;;;;8.85;100.00;100355.84;5007427;28;20033;-73
2023/10/24 00:31:21;;;;;;;0.40;0.40;;;;;;;8.86;100.00;100358.44;5007210;28;20037;-73
2023/10/24 00:33:46;;;;;;;0.40;0.40;;;;;;;8.86;100.00;100361.03;5007519;28;20053;-73
2023/10/24 00:36:11;;;;;;;0.40;0.40;;;;;;;8.88;100.00;100361.03;5007499;28;20026;-74
2023/10/24 00:38:37;;;;;;;0.30;0.30;;;;;;;8.86;100.00;100363.63;5007357;28;20105;-73
2023/10/24 00:41:02;;;;;;;0.30;0.30;;;;;;;8.85;100.00;100364.47;5007354;28;20026;-73
2023/10/24 00:43:27;;;;;;;0.40;0.40;;;;;;;8.90;100.00;100372.22;4989761;28;20026;-73
2023/10/24 00:45:53;;;;;;;0.40;0.40;;;;;;;8.90;100.00;100367.91;5007203;28;20061;-72
2023/10/24 00:48:19;;;;;;;0.50;0.50;;;;;;;8.83;100.00;100361.03;5005908;28;20375;-72
2023/10/24 00:50:44;;;;;;;0.40;0.40;;;;;;;8.85;100.00;100369.66;5007234;28;20529;-72
2023/10/24 00:53:10;;;;;;;0.38;0.38;;;;;;;8.87;100.00;100372.22;5007275;28;20038;-73
2023/10/24 00:55:39;;;;;;;0.40;0.40;;;;;;;8.84;100.00;100370.53;5007078;28;20026;-73
2023/10/24 00:58:06;;;;;;;0.40;0.40;;;;;;;8.87;100.00;100367.94;5006876;28;20445;-73
2023/10/24 01:00:34;;;;;;;0.40;0.40;;;;;;;8.87;100.00;100369.63;5006941;28;20014;-72
2023/10/24 01:03:02;;;;;;;0.40;0.40;;;;;;;8.87;100.00;100367.94;5007088;28;20026;-73
2023/10/24 01:05:27;;;;;;;0.40;0.40;;;;;;;8.87;100.00;100370.50;5006889;28;20357;-73
2023/10/24 01:07:53;;;;;;;0.65;0.65;;;;;;;8.88;100.00;100359.28;5006728;28;20033;-73
2023/10/24 01:10:18;;;;;;;0.40;0.40;;;;;;;8.87;100.00;100346.34;5006379;28;20089;-73
2023/10/24 01:12:44;;;;;;;0.40;0.40;;;;;;;8.92;100.00;100363.59;5006654;28;20023;-73
2023/10/24 01:15:10;;;;;;;0.40;0.40;;;;;;;8.89;100.00;100358.44;5006389;28;20029;-72
2023/10/24 01:17:46;;;;;;;0.40;0.40;;;;;;;8.89;100.00;100368.78;5006634;28;20037;-72
2023/10/24 01:20:12;;;;;;;0.40;0.40;;;;;;;8.85;100.00;100364.47;5006104;28;20026;-72
2023/10/24 01:22:37;;;;;;;0.40;0.40;;;;;;;8.82;100.00;100361.88;5006534;28;20042;-72
2023/10/24 01:25:12;;;;;;;0.30;0.30;;;;;;;8.79;100.00;100360.19;5006379;28;20029;-72
2023/10/24 01:27:40;;;;;;;0.30;0.30;;;;;;;8.79;100.00;100359.31;5006502;28;20038;-72
2023/10/24 01:30:06;;;;;;;0.40;0.40;;;;;;;8.82;100.00;100359.28;5006142;28;20026;-73
2023/10/24 01:32:31;;;;;;;0.40;0.40;;;;;;;8.79;100.00;100354.13;5005156;28;20111;-72
2023/10/24 01:34:56;;;;;;;0.40;0.40;;;;;;;8.84;100.00;100362.75;5005079;28;20102;-72
2023/10/24 01:37:22;;;;;;;0.30;0.30;;;;;;;8.86;100.00;100370.53;5005088;28;20026;-72
2023/10/24 01:39:47;;;;;;;0.30;0.30;;;;;;;8.86;100.00;100371.38;5006209;28;20109;-72
2023/10/24 01:42:12;;;;;;;0.32;0.32;;;;;;;8.81;100.00;100357.59;5006190;28;20383;-72
2023/10/24 01:44:38;;;;;;;0.40;0.40;;;;;;;8.85;100.00;100361.03;5004785;28;20018;-72
2023/10/24 01:47:03;;;;;;;0.30;0.30;;;;;;;8.84;100.00;100361.88;5006177;28;20136;-71
2023/10/24 01:49:28;;;;;;;15.52;7.18;;;;;;;8.87;100.00;100365.34;5005876;28;20026;-70
2023/10/24 01:51:54;;;;;;;0.40;0.40;;;;;;;8.83;100.00;100360.16;5005167;28;20030;-72
2023/10/24 01:54:19;;;;;;;0.40;0.40;;;;;;;8.84;100.00;100370.53;5006028;28;20026;-72
2023/10/24 01:56:44;;;;;;;0.40;0.40;;;;;;;8.84;100.00;100367.06;5004690;28;20030;-71
2023/10/24 01:59:10;;;;;;;0.40;0.40;;;;;;;8.82;100.00;100369.66;5006085;28;20018;-72
2023/10/24 02:01:35;;;;;;;0.30;0.30;;;;;;;8.82;100.00;100371.41;5005835;28;20467;-72
2023/10/24 02:04:01;;;;;;;0.30;0.30;;;;;;;8.81;100.00;100360.19;5006091;28;20026;-71
2023/10/24 02:06:26;;;;;;;0.30;0.30;;;;;;;8.82;100.00;100354.13;5006078;28;20033;-72
2023/10/24 02:08:51;;;;;;;0.40;0.40;;;;;;;8.85;100.00;100361.88;5005833;28;20163;-72
2023/10/24 02:11:16;;;;;;;1.30;1.30;;;;;;;8.80;100.00;100350.69;5005834;28;20090;-73
2023/10/24 02:13:42;;;;;;;0.52;0.52;;;;;;;8.81;100.00;100360.19;5004450;28;20057;-71
2023/10/24 02:16:07;;;;;;;0.70;0.70;;;;;;;8.82;100.00;100359.28;5005853;28;20036;-74
2023/10/24 02:18:33;;;;;;;0.50;0.50;;;;;;;8.86;100.00;100371.38;5005787;28;20022;-73
2023/10/24 02:20:58;;;;;;;0.40;0.40;;;;;;;8.81;100.00;100362.75;5005470;28;20066;-72
2023/10/24 02:23:23;;;;;;;0.40;0.40;;;;;;;8.80;100.00;100356.72;5005787;28;20443;-72
2023/10/24 02:25:49;;;;;;;0.32;0.32;;;;;;;8.79;100.00;100361.88;5007177;28;20026;-73
2023/10/24 02:28:14;;;;;;;0.40;0.40;;;;;;;8.79;100.00;100360.19;5009598;28;20026;-71
2023/10/24 02:30:40;;;;;;;0.40;0.40;;;;;;;8.79;100.00;100362.75;5009543;28;20056;-73
2023/10/24 02:33:05;;;;;;;0.38;0.38;;;;;;;8.75;100.00;100352.41;5009695;28;20085;-73
2023/10/24 02:35:30;;;;;;;0.40;0.40;;;;;;;8.82;100.00;100361.03;5009550;28;20022;-73
2023/10/24 02:37:56;;;;;;;0.40;0.40;;;;;;;8.82;100.00;100359.28;5009664;28;20027;-73
2023/10/24 02:40:21;;;;;;;0.40;0.40;;;;;;;8.76;100.00;100348.97;5008171;28;20056;-73
2023/10/24 02:42:46;;;;;;;0.40;0.40;;;;;;;8.77;100.00;100348.13;5009676;28;20089;-72
2023/10/24 02:45:12;;;;;;;0.40;0.40;;;;;;;8.82;100.00;100355.88;5009503;28;20081;-74
2023/10/24 02:47:37;;;;;;;0.40;0.40;;;;;;;8.76;100.00;100355.00;5009378;28;20101;-73
2023/10/24 02:50:03;;;;;;;0.30;0.30;;;;;;;8.75;100.00;100352.41;5009254;28;20033;-73
2023/10/24 02:52:29;;;;;;;0.40;0.40;;;;;;;8.77;100.00;100359.31;5009482;28;20052;-74
2023/10/24 02:54:55;;;;;;;0.40;0.40;;;;;;;8.79;100.00;100367.94;5009445;28;20026;-73
2023/10/24 02:57:21;;;;;;;0.40;0.40;;;;;;;8.81;100.00;100357.59;5009238;28;20396;-73
2023/10/24 02:59:46;;;;;;;0.30;0.30;;;;;;;8.81;100.00;100362.75;5007705;28;20053;-73
2023/10/24 03:02:13;;;;;;;0.40;0.40;;;;;;;8.76;100.00;100349.81;5007864;28;20205;-74
2023/10/24 03:04:38;;;;;;;0.40;0.40;;;;;;;8.80;100.00;100363.63;5009108;28;20374;-73
2023/10/24 03:07:03;;;;;;;0.40;0.40;;;;;;;8.77;100.00;100355.88;5009073;28;20024;-73
2023/10/24 03:09:29;;;;;;;0.40;0.40;;;;;;;8.77;100.00;100361.91;5008864;28;20077;-74
2023/10/24 03:11:54;;;;;;;1.70;1.60;;;;;;;8.73;100.00;100354.13;5007611;28;20022;-74
2023/10/24 03:14:19;;;;;;;0.30;0.30;;;;;;;8.73;100.00;100357.59;5007691;28;20033;-74
2023/10/24 03:16:45;;;;;;;0.30;0.30;;;;;;;8.75;100.00;100355.88;5007695;28;20529;-72
2023/10/24 03:19:10;;;;;;;0.40;0.40;;;;;;;8.71;100.00;100348.97;5008913;28;20022;-73
2023/10/24 03:21:36;;;;;;;0.30;0.30;;;;;;;8.68;100.00;100346.38;5008540;28;20106;-72
2023/10/24 03:24:02;;;;;;;0.40;0.40;;;;;;;8.71;100.00;100358.44;5008839;28;20030;-73
2023/10/24 03:26:27;;;;;;;0.40;0.40;;;;;;;8.62;100.00;100348.97;5008800;28;20023;-74
2023/10/24 03:28:53;;;;;;;0.40;0.40;;;;;;;8.64;100.00;100353.28;5008631;28;20026;-73
2023/10/24 03:31:18;;;;;;;0.40;0.40;;;;;;;8.63;100.00;100354.16;5007205;28;20041;-73
2023/10/24 03:33:44;;;;;;;0.32;0.32;;;;;;;8.62;100.00;100349.84;5008619;28;20022;-74
2023/10/24 03:36:13;;;;;;;0.30;0.30;;;;;;;8.59;100.00;100347.28;5008351;28;20027;-73
2023/10/24 03:38:39;;;;;;;0.40;0.40;;;;;;;8.62;100.00;100352.44;5007403;28;20386;-74
2023/10/24 03:41:19;;;;;;;0.30;0.30;;;;;;;8.55;100.00;100341.22;5008476;28;20030;-75
2023/10/24 03:43:48;;;;;;;0.30;0.30;;;;;;;8.54;100.00;100342.09;5008268;28;20114;-73
2023/10/24 03:46:14;;;;;;;0.40;0.40;;;;;;;8.52;100.00;100343.78;5008479;28;20479;-73
2023/10/24 03:48:40;;;;;;;0.40;0.40;;;;;;;8.48;100.00;100344.63;5008078;28;20026;-73
2023/10/24 03:51:05;;;;;;;0.40;0.40;;;;;;;8.54;100.00;100354.13;5008176;28;20041;-72
2023/10/24 03:53:31;;;;;;;0.40;0.40;;;;;;;8.45;100.00;100338.63;5008382;28;20053;-73
2023/10/24 03:56:00;;;;;;;0.30;0.30;;;;;;;8.46;100.00;100348.09;5008020;28;20085;-74
2023/10/24 03:58:26;;;;;;;0.40;0.40;;;;;;;8.49;100.00;100343.78;5006886;28;20053;-73
2023/10/24 04:00:52;;;;;;;0.40;0.40;;;;;;;8.49;100.00;100343.78;4990423;28;20018;-73
2023/10/24 04:03:19;;;;;;;0.40;0.40;;;;;;;8.48;100.00;100348.97;5006831;28;20033;-72
2023/10/24 04:05:45;;;;;;;0.40;0.40;;;;;;;8.48;100.00;100352.41;5006680;28;20368;-71
2023/10/24 04:08:10;;;;;;;0.40;0.40;;;;;;;8.47;100.00;100345.50;5007985;28;20028;-74
2023/10/24 04:10:35;;;;;;;0.40;0.40;;;;;;;8.46;100.00;100345.50;5007967;28;20030;-73
2023/10/24 04:13:01;;;;;;;0.40;0.40;;;;;;;8.42;100.00;100360.16;5007762;28;20422;-73
2023/10/24 04:15:27;;;;;;;0.40;0.40;;;;;;;8.33;100.00;100350.69;5007798;28;20038;-72
2023/10/24 04:17:53;;;;;;;0.40;0.40;;;;;;;8.36;100.00;100353.28;5007821;28;20022;-72
2023/10/24 04:20:19;;;;;;;0.30;0.30;;;;;;;8.35;100.00;100348.97;5007516;28;20499;-72
2023/10/24 04:22:47;;;;;;;0.40;0.40;;;;;;;8.35;100.00;100342.94;5007479;28;20108;-72
2023/10/24 04:25:12;;;;;;;0.50;0.50;;;;;;;8.37;100.00;100349.81;5007635;28;20026;-72
2023/10/24 04:27:37;;;;;;;0.40;0.40;;;;;;;8.36;100.00;100345.53;5007574;28;20034;-72
2023/10/24 04:30:03;;;;;;;0.40;0.40;;;;;;;8.33;100.00;100342.06;5006164;28;20162;-70
2023/10/24 04:32:29;;;;;;;0.40;0.40;;;;;;;8.34;100.00;100346.41;5005685;28;20026;-68
2023/10/24 04:34:54;;;;;;;0.40;0.40;;;;;;;8.33;100.00;100345.53;5007385;28;20382;-73
2023/10/24 04:37:22;;;;;;;0.30;0.30;;;;;;;8.34;100.00;100349.81;5006006;28;20086;-73
2023/10/24 04:39:48;;;;;;;0.40;0.40;;;;;;;8.33;100.00;100357.59;5006928;28;20045;-71
2023/10/24 04:42:14;;;;;;;0.40;0.40;;;;;;;8.35;100.00;100354.16;5006088;28;20274;-73
2023/10/24 04:44:39;;;;;;;0.40;0.40;;;;;;;8.36;100.00;100353.28;5007276;28;20026;-72
2023/10/24 04:47:05;;;;;;;0.40;0.40;;;;;;;8.35;100.00;100348.97;5007022;28;20026;-73
2023/10/24 04:49:30;;;;;;;0.40;0.40;;;;;;;8.30;100.00;100343.81;5004929;28;20034;-73
2023/10/24 04:51:55;;;;;;;0.40;0.40;;;;;;;8.30;100.00;100340.34;5006133;28;20053;-74
2023/10/24 04:54:20;;;;;;;0.40;0.40;;;;;;;8.32;100.00;100341.22;5006900;28;20026;-74
2023/10/24 04:56:46;;;;;;;0.30;0.30;;;;;;;8.33;100.00;100339.47;5006041;28;20034;-73
2023/10/24 04:59:11;;;;;;;0.40;0.40;;;;;;;8.36;100.00;100345.53;5006909;28;20463;-74
2023/10/24 05:01:39;;;;;;;0.35;0.35;;;;;;;8.33;100.00;100339.47;5005706;28;20034;-73
2023/10/24 05:04:06;;;;;;;0.40;0.40;;;;;;;8.35;100.00;100342.94;5005595;28;20018;-74
2023/10/24 05:06:31;;;;;;;0.40;0.40;;;;;;;8.36;100.00;100339.47;5006964;28;20049;-74
2023/10/24 05:08:57;;;;;;;0.38;0.38;;;;;;;8.35;100.00;100343.81;5006769;28;20022;-72
2023/10/24 05:11:22;;;;;;;0.30;0.30;;;;;;;8.28;100.00;100332.59;5006705;28;20091;-74
2023/10/24 05:13:47;;;;;;;0.40;0.40;;;;;;;8.39;100.00;100330.00;5006797;28;20029;-74
2023/10/24 05:16:12;;;;;;;0.30;0.30;;;;;;;8.41;100.00;100340.34;5006989;28;20030;-74
2023/10/24 05:18:38;;;;;;;0.40;0.40;;;;;;;8.39;100.00;100335.16;5006714;28;20466;-73
2023/10/24 05:21:03;;;;;;;0.40;0.40;;;;;;;8.38;100.00;100327.41;5006586;28;20038;-76
2023/10/24 05:23:29;;;;;;;0.30;0.30;;;;;;;8.39;100.00;100335.16;5005143;28;20045;-73
2023/10/24 05:25:55;;;;;;;0.80;0.80;;;;;;;8.36;100.00;100336.88;5006378;28;20105;-75
2023/10/24 05:28:20;;;;;;;0.40;0.40;;;;;;;8.35;100.00;100338.63;5006608;28;20028;-75
2023/10/24 05:30:46;;;;;;;0.30;0.30;;;;;;;8.35;100.00;100333.47;5006685;28;20041;-74
2023/10/24 05:33:11;;;;;;;0.40;0.40;;;;;;;8.35;100.00;100330.00;5006454;28;20026;-73
2023/10/24 05:35:36;;;;;;;0.40;0.40;;;;;;;8.36;100.00;100335.19;5006453;28;20026;-73
2023/10/24 05:38:02;;;;;;;0.40;0.40;;;;;;;8.45;100.00;100344.63;5006395;28;20109;-72
2023/10/24 05:40:27;;;;;;;0.40;0.40;;;;;;;8.42;100.00;100342.06;5006150;28;20090;-73
2023/10/24 05:42:52;;;;;;;0.40;0.40;;;;;;;8.43;100.00;100347.22;5005985;28;20082;-72
2023/10/24 05:45:18;;;;;;;0.40;0.40;;;;;;;8.43;100.00;100338.63;5004038;28;20030;-71
2023/10/24 05:47:43;;;;;;;0.40;0.40;;;;;;;8.41;100.00;100341.22;5005958;28;20474;-72
2023/10/24 05:50:09;;;;;;;0.40;0.40;;;;;;;8.42;100.00;100340.34;5004747;28;20037;-72
2023/10/24 05:52:34;;;;;;;0.40;0.40;;;;;;;8.46;100.00;100348.09;5005490;28;20030;-72
2023/10/24 05:55:00;;;;;;;0.40;0.40;;;;;;;8.45;100.00;100348.97;5004371;28;20077;-71
2023/10/24 05:57:25;;;;;;;0.38;0.38;;;;;;;8.46;100.00;100346.38;5005523;28;20018;-73
2023/10/24 05:59:51;;;;;;;0.40;0.40;;;;;;;8.44;100.00;100348.09;5004940;28;20386;-71
2023/10/24 06:02:16;;;;;;;0.30;0.30;;;;;;;8.49;100.00;100354.16;5005972;28;20025;-71
2023/10/24 06:04:41;;;;;;;0.40;0.40;;;;;;;8.46;100.00;100345.50;5005433;28;20026;-72
2023/10/24 06:07:07;;;;;;;0.40;0.40;;;;;;;8.47;100.00;100357.56;5005993;28;20153;-72
2023/10/24 06:09:32;;;;;;;0.40;0.40;;;;;;;8.51;100.00;100348.97;5005325;28;20026;-71
2023/10/24 06:11:57;;;;;;;0.35;0.35;;;;;;;8.51;100.00;100354.16;5005648;28;20026;-72
2023/10/24 06:14:23;;;;;;;0.40;0.40;;;;;;;8.52;100.00;100342.91;5005604;28;20491;-72
2023/10/24 06:16:48;;;;;;;0.40;0.40;;;;;;;8.54;100.00;100349.88;5005390;28;20105;-70
2023/10/24 06:19:13;;;;;;;0.68;0.68;;;;;;;8.48;100.00;100336.88;5005574;28;20022;-71
2023/10/24 06:21:39;;;;;;;0.40;0.40;;;;;;;8.48;100.00;100336.03;5004297;28;20120;-72
2023/10/24 06:24:05;;;;;;;0.40;0.40;;;;;;;8.54;100.00;100343.78;5005987;28;20022;-71
2023/10/24 06:26:30;;;;;;;0.40;0.40;;;;;;;8.49;100.00;100340.34;5021096;28;20463;-73
2023/10/24 06:28:55;;;;;;;0.40;0.40;;;;;;;8.58;100.00;100355.03;5005895;28;20033;-72
2023/10/24 06:31:21;;;;;;;0.38;0.38;;;;;;;8.61;100.00;100355.03;5006001;28;20018;-72
2023/10/24 06:33:46;;;;;;;0.40;0.40;;;;;;;8.63;100.00;100350.69;5006003;28;20184;-71
2023/10/24 06:36:12;;;;;;;0.35;0.35;;;;;;;8.63;100.00;100351.56;5005837;28;20055;-71
2023/10/24 06:38:37;;;;;;;0.40;0.40;;;;;;;8.63;100.00;100348.97;5004709;28;20307;-71
2023/10/24 06:41:06;;;;;;;0.40;0.40;;;;;;;8.66;100.00;100358.47;5005781;28;20022;-70
2023/10/24 06:43:31;;;;;;;0.40;0.40;;;;;;;8.65;100.00;100356.75;5005622;28;20044;-70
2023/10/24 06:45:57;;;;;;;0.35;0.35;;;;;;;8.63;100.00;100348.97;5005849;28;20454;-71
2023/10/24 06:48:22;;;;;;;0.40;0.40;;;;;;;8.56;100.00;100344.69;5005848;28;20026;-71
2023/10/24 06:50:48;;;;;;;0.40;0.40;;;;;;;8.73;100.00;100373.13;5005628;28;20024;-72
2023/10/24 06:53:13;;;;;;;0.30;0.30;;;;;;;8.78;100.00;100370.53;5005920;28;20023;-71
2023/10/24 06:55:38;;;;;;;0.40;0.40;;;;;;;8.72;100.00;100363.63;5005418;28;20461;-71
2023/10/24 06:58:04;;;;;;;0.40;0.40;;;;;;;8.64;100.00;100361.03;5004452;28;20113;-70
2023/10/24 07:00:30;;;;;;;0.40;0.40;;;;;;;8.76;100.00;100369.66;5004235;28;20463;-72
2023/10/24 07:02:56;;;;;;;0.40;0.40;;;;;;;8.67;100.00;100365.38;5005723;28;20057;-71
2023/10/24 07:05:22;;;;;;;0.40;0.40;;;;;;;8.66;100.00;100372.28;5005727;28;20443;-71
2023/10/24 07:07:47;;;;;;;0.40;0.40;;;;;;;8.66;100.00;100373.97;5005584;28;20030;-71
2023/10/24 07:10:13;;;;;;;0.30;0.30;;;;;;;8.71;100.00;100380.03;5005401;28;20065;-70
2023/10/24 07:12:38;;;;;;;0.40;0.40;;;;;;;8.58;100.00;100383.50;5008223;28;20169;-71
2023/10/24 07:15:04;;;;;;;0.40;0.40;;;;;;;8.59;100.00;100383.50;5009203;28;20073;-71
2023/10/24 07:17:30;;;;;;;0.40;0.40;;;;;;;8.54;100.00;100380.91;5009212;28;20486;-71
2023/10/24 07:19:59;;;;;;;0.30;0.30;;;;;;;8.68;99.67;100382.63;5007619;28;20086;-70
2023/10/24 07:22:28;;;;;;;0.30;0.30;;;;;;;8.59;99.62;100388.69;5007699;28;20150;-69
2023/10/24 07:24:54;;;;;;;0.40;0.40;;;;;;;8.53;99.72;100379.13;5024152;28;20050;-71
2023/10/24 07:27:20;;;;;;;0.40;0.40;;;;;;;8.63;99.08;100387.81;5009043;28;20053;-72
2023/10/24 07:29:45;;;;;;;0.40;0.40;;;;;;;8.72;98.40;100375.72;5008918;28;20056;-71
2023/10/24 07:32:14;;;;;;;0.40;0.40;;;;;;;8.54;99.72;100380.00;5008929;28;20034;-70
2023/10/24 07:34:41;;;;;;;0.40;0.40;;;;;;;8.53;99.65;100363.63;5008923;28;20049;-69
2023/10/24 07:37:07;;;;;;;0.40;0.40;;;;;;;8.60;98.99;100381.75;5008595;28;20279;-71
2023/10/24 07:39:32;;;;;;;0.40;0.40;;;;;;;8.48;99.90;100370.50;5008754;28;20029;-70
2023/10/24 07:41:58;;;;;;;0.40;0.40;;;;;;;8.49;100.00;100395.53;5008566;28;20030;-72
2023/10/24 07:44:26;;;;;;;0.40;0.40;;;;;;;8.51;100.00;100383.47;5008713;28;20037;-71
2023/10/24 07:46:52;;;;;;;0.40;0.40;;;;;;;8.55;99.21;100376.59;5008667;28;20033;-71
2023/10/24 07:49:17;;;;;;;0.30;0.30;;;;;;;8.57;100.00;100385.22;5008591;28;20034;-71
2023/10/24 07:51:42;;;;;;;0.40;0.40;;;;;;;8.58;100.00;100383.50;5008454;28;20019;-71
2023/10/24 07:54:07;;;;;;;0.35;0.35;;;;;;;8.61;99.97;100373.16;5008428;28;20084;-71
2023/10/24 07:56:35;;;;;;;0.40;0.40;;;;;;;8.61;99.24;100375.75;5008548;28;20030;-72
2023/10/24 07:59:00;;;;;;;0.40;0.40;;;;;;;8.60;99.07;100374.00;5008256;28;20030;-70
2023/10/24 08:01:25;;;;;;;0.40;0.40;;;;;;;8.64;98.46;100368.81;5007044;28;20375;-71
2023/10/24 08:03:51;;;;;;;0.40;0.40;;;;;;;8.61;98.93;100401.63;5007070;28;20034;-71
2023/10/24 08:06:16;;;;;;;0.40;0.40;;;;;;;8.71;97.80;100423.16;5008127;28;20018;-72
2023/10/24 08:08:43;;;;;;;0.30;0.30;;;;;;;8.58;98.40;100388.69;5008270;28;20057;-71
2023/10/24 08:11:08;;;;;;;0.30;0.30;;;;;;;8.62;98.94;100377.44;5007982;28;20022;-71
2023/10/24 08:13:41;;;;;;;0.32;0.32;;;;;;;8.67;99.07;100392.09;5008077;28;20547;-71
2023/10/24 08:16:06;;;;;;;0.40;0.40;;;;;;;8.66;98.07;100395.56;5008227;28;20050;-71
2023/10/24 08:18:34;;;;;;;0.40;0.40;;;;;;;8.71;97.65;100381.75;5008030;28;20380;-72
2023/10/24 08:21:00;;;;;;;0.30;0.30;;;;;;;8.70;97.33;100387.78;5007809;28;20042;-71
2023/10/24 08:23:26;;;;;;;0.40;0.40;;;;;;;8.91;94.81;100392.09;5005566;28;20037;-71
2023/10/24 08:25:51;;;;;;;0.50;0.50;;;;;;;8.81;95.11;100388.66;5008113;28;20022;-71
2023/10/24 08:28:16;;;;;;;0.40;0.40;;;;;;;8.65;95.97;100411.97;5007842;28;20097;-71
2023/10/24 08:30:41;;;;;;;0.40;0.40;;;;;;;8.59;95.92;100400.75;5007641;28;20026;-70
2023/10/24 08:33:07;;;;;;;0.40;0.40;;;;;;;8.64;95.42;100392.09;5007723;28;20494;-72
2023/10/24 08:35:32;;;;;;;0.40;0.40;;;;;;;8.79;94.59;100409.34;5007731;28;20030;-71
2023/10/24 08:37:58;;;;;;;0.40;0.40;;;;;;;8.57;96.06;100399.88;5007698;28;20026;-72
2023/10/24 08:40:26;;;;;;;0.40;0.40;;;;;;;8.60;96.57;100400.75;5007481;28;20022;-70
2023/10/24 08:42:51;;;;;;;0.40;0.40;;;;;;;8.66;96.83;100403.31;5007575;28;20379;-71
2023/10/24 08:45:38;;;;;;;0.40;0.40;;;;;;;8.77;96.78;100428.34;5007363;28;20032;-71
2023/10/24 08:48:05;;;;;;;0.40;0.40;;;;;;;8.74;95.26;100397.31;5022580;28;20026;-71
2023/10/24 08:50:31;;;;;;;0.40;0.40;;;;;;;8.83;93.87;100402.47;5007284;28;20030;-72
2023/10/24 08:52:57;;;;;;;0.40;0.40;;;;;;;8.75;94.54;100406.78;5007443;28;20450;-71
2023/10/24 08:55:23;;;;;;;0.40;0.40;;;;;;;8.71;94.65;100399.84;5007428;28;20026;-71
2023/10/24 08:57:50;;;;;;;0.40;0.40;;;;;;;8.70;94.34;100400.72;5007295;28;20032;-71
2023/10/24 09:00:16;;;;;;;0.30;0.30;;;;;;;8.71;95.14;100392.97;5007087;28;20021;-70
2023/10/24 09:02:42;;;;;;;0.40;0.40;;;;;;;8.63;94.52;100380.03;5005917;28;20453;-70
2023/10/24 09:05:12;;;;;;;0.40;0.40;;;;;;;8.66;95.44;100408.50;5022203;28;20022;-73
2023/10/24 09:07:37;;;;;;;0.40;0.40;;;;;;;8.68;95.98;100405.91;5007142;28;20037;-71
2023/10/24 09:10:03;;;;;;;0.40;0.40;;;;;;;8.73;95.29;100395.56;5007073;28;20086;-72
2023/10/24 09:12:30;;;;;;;0.40;0.40;;;;;;;8.70;95.74;100391.25;5007017;28;20022;-72
2023/10/24 09:14:56;;;;;;;0.40;0.40;;;;;;;8.75;96.10;100392.13;5006826;28;20026;-72
2023/10/24 09:17:23;;;;;;;0.40;0.40;;;;;;;8.78;94.77;100379.16;5006950;28;20030;-72
2023/10/24 09:19:48;;;;;;;0.52;0.52;;;;;;;8.76;95.37;100395.56;5006994;28;20022;-71
2023/10/24 09:22:18;;;;;;;0.40;0.40;;;;;;;8.84;94.40;100396.41;5005240;28;20054;-71
2023/10/24 09:24:45;;;;;;;0.40;0.40;;;;;;;8.83;93.88;100393.81;5006821;28;20022;-72
2023/10/24 09:27:12;;;;;;;0.40;0.40;;;;;;;8.92;93.95;100397.25;5005354;28;20050;-71
2023/10/24 09:29:38;;;;;;;0.40;0.40;;;;;;;8.93;92.38;100398.97;5006550;28;20023;-71
2023/10/24 09:32:04;;;;;;;0.40;0.40;;;;;;;8.88;92.98;100394.69;5005191;28;20068;-72
2023/10/24 09:34:31;;;;;;;0.40;0.40;;;;;;;8.88;93.78;100394.69;5006464;28;20028;-71
2023/10/24 09:37:07;;;;;;;0.40;0.40;;;;;;;8.91;94.53;100390.34;5005363;28;20492;-70
2023/10/24 09:39:54;;;;;;;0.40;0.40;;;;;;;8.97;94.88;100394.66;5006543;28;20026;-71
2023/10/24 09:42:25;;;;;;;0.40;0.40;;;;;;;9.02;94.01;100394.66;5005927;28;20041;-71
2023/10/24 09:44:53;;;;;;;0.40;0.40;;;;;;;9.00;94.13;100384.31;5006118;28;20097;-70
2023/10/24 09:47:19;;;;;;;0.40;0.40;;;;;;;8.97;94.36;100380.84;5006474;28;20026;-72
2023/10/24 09:49:46;;;;;;;0.40;0.40;;;;;;;8.96;93.87;100379.13;5006276;28;20046;-72
2023/10/24 09:52:12;;;;;;;0.40;0.40;;;;;;;8.94;93.58;100379.13;5004924;28;20022;-72
2023/10/24 09:54:39;;;;;;;0.35;0.35;;;;;;;9.04;92.14;100396.38;5006343;28;20027;-69
2023/10/24 09:57:05;;;;;;;0.45;0.45;;;;;;;9.01;90.01;100387.75;5006375;28;20053;-71
2023/10/24 09:59:31;;;;;;;0.43;0.43;;;;;;;9.00;89.59;100399.84;5006041;28;20061;-71
2023/10/24 10:01:57;;;;;;;0.50;0.50;;;;;;;8.83;90.04;100381.75;5006031;28;20025;-73
2023/10/24 10:04:23;;;;;;;0.50;0.50;;;;;;;8.82;90.83;100368.81;5004765;28;20054;-71
2023/10/24 10:06:48;;;;;;;0.40;0.40;;;;;;;8.85;90.22;100367.06;5006199;28;20022;-72
2023/10/24 10:09:15;;;;;;;0.40;0.40;;;;;;;8.90;90.99;100377.41;5006114;28;20033;-71
2023/10/24 10:11:42;;;;;;;0.50;0.50;;;;;;;8.89;89.61;100361.03;5006045;28;20040;-71
2023/10/24 10:14:22;;;;;;;0.45;0.45;;;;;;;8.86;90.13;100379.16;5004852;28;20018;-71
2023/10/24 10:17:04;;;;;;;5.57;0.50;;;;;;;8.86;90.81;100363.63;5006037;28;20102;-71
2023/10/24 10:19:42;;;;;;;;;;;;;;;8.90;89.33;100365.31;5006570;28;20029;-72
2023/10/24 10:22:15;;;;;;;0.47;0.47;;;;;;;8.79;89.80;100380.88;5005818;28;19921;-72
2023/10/24 10:24:49;;;;;;;0.68;0.50;;;;;;;8.72;91.02;100373.97;5004767;28;20029;-71
2023/10/24 10:27:34;;;;;;;0.40;0.40;;;;;;;8.78;90.74;100371.41;5006121;28;20494;-71
2023/10/24 10:30:18;;;;;;;1.75;0.93;;;;;;;8.92;89.43;100366.19;5005832;28;20033;-70
2023/10/24 10:32:50;;;;;;;0.50;0.50;;;;;;;8.77;89.67;100371.41;5005961;28;20030;-71
2023/10/24 10:35:18;;;;;;;0.50;0.50;;;;;;;8.81;89.52;100383.47;5005973;28;20025;-71
2023/10/24 10:37:59;;;;;;;0.40;0.40;;;;;;;8.79;89.97;100359.31;5005966;28;20026;-71
2023/10/24 10:40:27;;;;;;;0.50;0.50;;;;;;;8.81;89.03;100362.75;5004603;28;20026;-71
2023/10/24 10:42:53;;;;;;;0.50;0.50;;;;;;;8.71;90.10;100361.91;5006100;28;20542;-71
2023/10/24 10:45:32;;;;;;;0.63;0.63;;;;;;;8.90;89.27;100373.09;5005769;28;20026;-70
2023/10/24 10:47:59;;;;;;;1.10;0.77;;;;;;;8.78;89.43;100360.19;5009125;28;20246;-71
2023/10/24 10:50:29;;;;;;;0.57;0.52;;;;;;;8.79;89.25;100361.88;5009662;28;20091;-72
2023/10/24 10:53:26;;;;;;;0.70;0.70;;;;;;;8.73;89.63;100360.19;5008227;28;20200;-71
2023/10/24 10:55:51;;;;;;;0.40;0.40;;;;;;;8.80;89.08;100356.72;5009712;28;20529;-71
2023/10/24 10:58:23;;;;;;;1.40;0.52;;;;;;;8.96;86.82;100368.78;5009747;28;20033;-71
2023/10/24 11:01:45;;;;;;;0.50;0.50;;;;;;;8.84;86.71;100360.16;5009370;28;20077;-71
2023/10/24 11:04:13;;;;;;;0.95;0.75;;;;;;;8.65;87.70;100364.50;5007395;28;20049;-72
2023/10/24 11:06:49;;;;;;;0.50;0.50;;;;;;;8.65;88.01;100361.91;4990784;28;20030;-72
2023/10/24 11:09:14;;;;;;;0.40;0.40;;;;;;;8.67;87.16;100371.41;5006978;28;20042;-71
2023/10/24 11:11:39;;;;;;;0.40;0.40;;;;;;;8.60;86.80;100372.28;5006951;28;20033;-73
2023/10/24 11:14:19;;;;;;;0.40;0.40;;;;;;;8.53;87.80;100376.56;5006867;28;20033;-72
2023/10/24 11:16:48;;;;;;;0.60;0.60;;;;;;;8.92;84.05;100368.78;5007104;28;20360;-71
2023/10/24 11:19:22;;;;;;;0.60;0.50;;;;;;;8.75;84.29;100367.94;5007104;28;20518;-71
2023/10/24 11:21:52;;;;;;;0.65;0.65;;;;;;;8.59;84.76;100372.28;5006542;28;20067;-72
2023/10/24 11:24:20;;;;;;;0.60;0.60;;;;;;;8.63;85.06;100363.63;4990612;28;20054;-72
2023/10/24 11:26:55;;;;;;;0.65;0.52;;;;;;;8.63;84.50;100382.63;4990442;28;20023;-72
2023/10/24 11:29:21;;;;;;;0.47;0.47;;;;;;;8.49;85.93;100384.31;5006661;28;20542;-67